Time;durP1;ratioP1;P1;durP2;ratioP2;P2;SDS_P1;SDS_P2;PMS_P1;PMS_P2;Temp;Humidity;BMP_temperature;BMP_pressure;BME280_temperature;BME280_humidity;BME280_pressure;Samples;Min_cycle;Max_cycle;Signal;HPM_P1;HPM_P2
2022/09/20 00:00:10;;;;;;;;;;;;;;;;;;5075798;28;19920;-80
2022/09/20 00:02:36;;;;;;;;;;;;;;;;;;5076719;28;19982;-81
2022/09/20 00:05:01;;;;;;;;;;;;;;;;;;5076036;28;19938;-79
2022/09/20 00:07:26;;;;;;;;;;;;;;;;;;5077487;28;20289;-79
2022/09/20 00:09:52;;;;;;;;;;;;;;;;;;5098395;28;20020;-80
2022/09/20 00:12:17;;;;;;;;;;;;;;;;;;5098185;28;20321;-80
2022/09/20 00:14:42;;;;;;;;;;;;;;;;;;5079700;28;20321;-80
2022/09/20 00:17:08;;;;;;;;;;;;;;;;;;5079855;28;19920;-81
2022/09/20 00:19:33;;;;;;;;;;;;;;;;;;5097799;28;19916;-79
2022/09/20 00:21:58;;;;;;;;;;;;;;;;;;5098343;28;19971;-79
2022/09/20 00:24:24;;;;;;;;;;;;;;;;;;5098019;28;20018;-81
2022/09/20 00:26:50;;;;;;;;;;;;;;;;;;5079602;28;19924;-79
2022/09/20 00:29:16;;;;;;;;;;;;;;;;;;5079592;28;19922;-81
2022/09/20 00:31:41;;;;;;;;;;;;;;;;;;5079883;28;20297;-79
2022/09/20 00:36:51;;;;;;;;;;;;;;;;;;5096500;28;19945;-81
2022/09/20 00:39:16;;;;;;;;;;;;;;;;;;5097842;28;19916;-80
2022/09/20 00:41:42;;;;;;;;;;;;;;;;;;5097541;28;20333;-80
2022/09/20 00:44:26;;;;;;;;;;;;;;;;;;5095960;28;19920;-81
2022/09/20 00:46:51;;;;;;;;;;;;;;;;;;5097778;28;19920;-80
2022/09/20 00:49:17;;;;;;;;;;;;;;;;;;5097255;28;20011;-81
2022/09/20 00:51:45;;;;;;;;;;;;;;;;;;5097300;28;19965;-80
2022/09/20 00:54:10;;;;;;;;;;;;;;;;;;5096126;28;19916;-80
2022/09/20 00:56:37;;;;;;;;;;;;;;;;;;5097547;28;20410;-79
2022/09/20 00:59:19;;;;;;;;;;;;;;;;;;5097305;28;19955;-81
2022/09/20 01:01:45;;;;;;;;;;;;;;;;;;5095931;28;19916;-80
2022/09/20 01:04:11;;;;;;;;;;;;;;;;;;5095878;28;19916;-80
2022/09/20 01:06:36;;;;;;;;;;;;;;;;;;5096979;28;19923;-81
2022/09/20 01:09:02;;;;;;;;;;;;;;;;;;5097164;28;19943;-80
2022/09/20 01:11:28;;;;;;;;;;;;;;;;;;5095712;28;19932;-80
2022/09/20 01:13:53;;;;;;;;;;;;;;;;;;5097043;28;19916;-80
2022/09/20 01:16:18;;;;;;;;;;;;;;;;;;5096886;28;20337;-80
2022/09/20 01:18:44;;;;;;;;;;;;;;;;;;5095380;28;19947;-80
2022/09/20 01:21:11;;;;;;;;;;;;;;;;;;5096860;28;20599;-80
2022/09/20 01:23:59;;;;;;;;;;;;;;;;;;5095818;28;19919;-80
2022/09/20 01:26:31;;;;;;;;;;;;;;;;;;5095097;28;20015;-79
2022/09/20 01:29:20;;;;;;;;;;;;;;;;;;5095469;28;19980;-80
2022/09/20 01:31:47;;;;;;;;;;;;;;;;;;5070072;28;20400;-80
2022/09/20 01:34:13;;;;;;;;;;;;;;;;;;5095615;28;20314;-80
2022/09/20 01:36:39;;;;;;;;;;;;;;;;;;5095283;28;19916;-81
2022/09/20 01:39:04;;;;;;;;;;;;;;;;;;5096676;28;20349;-80
2022/09/20 01:41:33;;;;;;;;;;;;;;;;;;5096015;28;19955;-80
2022/09/20 01:44:02;;;;;;;;;;;;;;;;;;5078746;28;20314;-80
2022/09/20 01:46:34;;;;;;;;;;;;;;;;;;5096171;28;20334;-80
2022/09/20 01:49:05;;;;;;;;;;;;;;;;;;5096485;28;19923;-81
2022/09/20 01:51:39;;;;;;;;;;;;;;;;;;5096159;28;20272;-80
2022/09/20 01:54:04;;;;;;;;;;;;;;;;;;5078363;28;19916;-80
2022/09/20 01:56:48;;;;;;;;;;;;;;;;;;5078021;28;19978;-80
2022/09/20 01:59:23;;;;;;;;;;;;;;;;;;5078469;28;19922;-80
2022/09/20 02:01:57;;;;;;;;;;;;;;;;;;5096337;28;20014;-79
2022/09/20 02:04:41;;;;;;;;;;;;;;;;;;5095056;28;19920;-80
2022/09/20 02:07:12;;;;;;;;;;;;;;;;;;5095916;28;19923;-79
2022/09/20 02:09:44;;;;;;;;;;;;;;;;;;5096111;28;19916;-80
2022/09/20 02:12:18;;;;;;;;;;;;;;;;;;5077783;28;19920;-81
2022/09/20 02:14:56;;;;;;;;;;;;;;;;;;5095797;28;19916;-79
2022/09/20 02:17:25;;;;;;;;;;;;;;;;;;5095560;28;20310;-80
2022/09/20 02:19:53;;;;;;;;;;;;;;;;;;5094475;28;19923;-81
2022/09/20 02:22:26;;;;;;;;;;;;;;;;;;5094411;28;19916;-80
2022/09/20 02:25:10;;;;;;;;;;;;;;;;;;5093981;28;20056;-80
2022/09/20 02:27:53;;;;;;;;;;;;;;;;;;5095737;28;19916;-79
2022/09/20 02:30:21;;;;;;;;;;;;;;;;;;5094874;28;20019;-80
2022/09/20 02:32:46;;;;;;;;;;;;;;;;;;5095468;28;19916;-80
2022/09/20 02:35:12;;;;;;;;;;;;;;;;;;5095349;28;19916;-80
2022/09/20 02:37:56;;;;;;;;;;;;;;;;;;5095301;28;19917;-81
2022/09/20 02:40:27;;;;;;;;;;;;;;;;;;5094982;28;19916;-80
2022/09/20 02:43:02;;;;;;;;;;;;;;;;;;5077243;28;19916;-80
2022/09/20 02:45:30;;;;;;;;;;;;;;;;;;5095379;28;19916;-80
2022/09/20 02:47:56;;;;;;;;;;;;;;;;;;5093854;28;19917;-80
2022/09/20 02:50:33;;;;;;;;;;;;;;;;;;5093914;28;19919;-81
2022/09/20 02:53:13;;;;;;;;;;;;;;;;;;5095055;28;19959;-80
2022/09/20 02:55:48;;;;;;;;;;;;;;;;;;5093565;28;20253;-80
2022/09/20 02:58:13;;;;;;;;;;;;;;;;;;5094981;28;19923;-80
2022/09/20 03:00:58;;;;;;;;;;;;;;;;;;5094930;28;19912;-80
2022/09/20 03:03:44;;;;;;;;;;;;;;;;;;5095015;28;20265;-80
2022/09/20 03:06:28;;;;;;;;;;;;;;;;;;5093569;28;19955;-80
2022/09/20 03:08:56;;;;;;;;;;;;;;;;;;5094432;28;19938;-80
2022/09/20 03:11:24;;;;;;;;;;;;;;;;;;5095111;28;20322;-80
2022/09/20 03:13:52;;;;;;;;;;;;;;;;;;5095283;28;19916;-80
2022/09/20 03:16:36;;;;;;;;;;;;;;;;;;5094553;28;19973;-80
2022/09/20 03:19:07;;;;;;;;;;;;;;;;;;5076740;28;19916;-79
2022/09/20 03:21:46;;;;;;;;;;;;;;;;;;5076935;28;19965;-80
2022/09/20 03:24:34;;;;;;;;;;;;;;;;;;5093062;28;19916;-80
2022/09/20 03:27:02;;;;;;;;;;;;;;;;;;5065367;28;19916;-80
2022/09/20 03:29:51;;;;;;;;;;;;;;;;;;5094692;28;20338;-80
2022/09/20 03:32:34;;;;;;;;;;;;;;;;;;5065445;28;19916;-80
2022/09/20 03:35:16;;;;;;;;;;;;;;;;;;5094372;28;19916;-80
2022/09/20 03:38:02;;;;;;;;;;;;;;;;;;5092936;28;19936;-80
2022/09/20 03:40:32;;;;;;;;;;;;;;;;;;5062563;28;19916;-80
2022/09/20 03:43:11;;;;;;;;;;;;;;;;;;5093191;28;19922;-79
2022/09/20 03:45:45;;;;;;;;;;;;;;;;;;5094146;28;20249;-80
2022/09/20 03:48:18;;;;;;;;;;;;;;;;;;5076621;28;20230;-79
2022/09/20 03:51:02;;;;;;;;;;;;;;;;;;5093109;28;19916;-80
2022/09/20 03:53:38;;;;;;;;;;;;;;;;;;5076444;28;19916;-80
2022/09/20 03:56:19;;;;;;;;;;;;;;;;;;5094271;28;19916;-79
2022/09/20 03:58:57;;;;;;;;;;;;;;;;;;5094323;28;19981;-80
2022/09/20 04:01:23;;;;;;;;;;;;;;;;;;5093044;28;19965;-79
2022/09/20 04:03:52;;;;;;;;;;;;;;;;;;5094071;28;19916;-82
2022/09/20 04:06:36;;;;;;;;;;;;;;;;;;5093686;28;20329;-77
2022/09/20 04:09:25;;;;;;;;;;;;;;;;;;5093997;28;19916;-78
2022/09/20 04:12:13;;;;;;;;;;;;;;;;;;5076060;28;20234;-78
2022/09/20 04:14:41;;;;;;;;;;;;;;;;;;5092885;28;19916;-78
2022/09/20 04:17:23;;;;;;;;;;;;;;;;;;5075888;28;19916;-77
2022/09/20 04:19:55;;;;;;;;;;;;;;;;;;5092760;28;19916;-77
2022/09/20 04:22:21;;;;;;;;;;;;;;;;;;5092553;28;19916;-77
2022/09/20 04:24:55;;;;;;;;;;;;;;;;;;5092586;28;19927;-78
2022/09/20 04:27:23;;;;;;;;;;;;;;;;;;5092361;28;20060;-77
2022/09/20 04:29:51;;;;;;;;;;;;;;;;;;5094144;28;20321;-77
2022/09/20 04:32:25;;;;;;;;;;;;;;;;;;5059063;28;19916;-77
2022/09/20 04:37:55;;;;;;;;;;;;;;;;;;5062558;28;19926;-77
2022/09/20 04:40:26;;;;;;;;;;;;;;;;;;5092490;28;20312;-75
2022/09/20 04:42:55;;;;;;;;;;;;;;;;;;5092254;28;20329;-76
2022/09/20 04:45:36;;;;;;;;;;;;;;;;;;5090847;28;19923;-75
2022/09/20 04:48:10;;;;;;;;;;;;;;;;;;5089573;28;19920;-78
2022/09/20 04:50:54;;;;;;;;;;;;;;;;;;5086475;28;19916;-77
2022/09/20 04:53:23;;;;;;;;;;;;;;;;;;5069165;28;19927;-76
2022/09/20 04:55:50;;;;;;;;;;;;;;;;;;5085479;28;19924;-77
2022/09/20 04:58:27;;;;;;;;;;;;;;;;;;5075001;28;20505;-75
2022/09/20 05:01:15;;;;;;;;;;;;;;;;;;5098704;28;19927;-79
2022/09/20 05:03:47;;;;;;;;;;;;;;;;;;5087825;28;19921;-75
2022/09/20 05:06:22;;;;;;;;;;;;;;;;;;5065399;28;19916;-75
2022/09/20 05:09:07;;;;;;;;;;;;;;;;;;5089560;28;19920;-78
2022/09/20 05:11:37;;;;;;;;;;;;;;;;;;5088733;28;19964;-77
2022/09/20 05:14:21;;;;;;;;;;;;;;;;;;5070243;28;19923;-75
2022/09/20 05:17:05;;;;;;;;;;;;;;;;;;5065023;28;19959;-76
2022/09/20 05:19:54;;;;;;;;;;;;;;;;;;5070102;28;19931;-75
2022/09/20 05:22:30;;;;;;;;;;;;;;;;;;5068734;28;19921;-74
2022/09/20 05:24:55;;;;;;;;;;;;;;;;;;5071754;28;20516;-76
2022/09/20 05:27:23;;;;;;;;;;;;;;;;;;5069752;28;19921;-75
2022/09/20 05:30:09;;;;;;;;;;;;;;;;;;5072228;28;20254;-78
2022/09/20 05:32:54;;;;;;;;;;;;;;;;;;5042796;28;20011;-75
2022/09/20 05:35:26;;;;;;;;;;;;;;;;;;5091934;28;20353;-76
2022/09/20 05:37:55;;;;;;;;;;;;;;;;;;5076356;28;20011;-77
2022/09/20 05:40:29;;;;;;;;;;;;;;;;;;5078619;28;19976;-77
2022/09/20 05:42:59;;;;;;;;;;;;;;;;;;5077896;28;20423;-79
2022/09/20 05:45:43;;;;;;;;;;;;;;;;;;5078411;28;19942;-79
2022/09/20 05:48:17;;;;;;;;;;;;;;;;;;5075173;28;19928;-76
2022/09/20 05:50:54;;;;;;;;;;;;;;;;;;5055285;28;19912;-79
2022/09/20 05:53:20;;;;;;;;;;;;;;;;;;5066326;28;19927;-74
2022/09/20 05:55:45;;;;;;;;;;;;;;;;;;5082602;28;19920;-77
2022/09/20 05:58:14;;;;;;;;;;;;;;;;;;5069583;28;20011;-75
2022/09/20 06:00:48;;;;;;;;;;;;;;;;;;5068811;28;19924;-75
2022/09/20 06:03:16;;;;;;;;;;;;;;;;;;5061305;28;19935;-73
2022/09/20 06:05:47;;;;;;;;;;;;;;;;;;5069332;28;19974;-74
2022/09/20 06:08:32;;;;;;;;;;;;;;;;;;5051394;28;20432;-73
2022/09/20 06:11:13;;;;;;;;;;;;;;;;;;5078878;28;20403;-74
2022/09/20 06:13:42;;;;;;;;;;;;;;;;;;5052532;28;20253;-76
2022/09/20 06:16:08;;;;;;;;;;;;;;;;;;5084026;28;20010;-77
2022/09/20 06:18:37;;;;;;;;;;;;;;;;;;5070818;28;20285;-77
2022/09/20 06:21:02;;;;;;;;;;;;;;;;;;5075588;28;19921;-75
2022/09/20 06:23:28;;;;;;;;;;;;;;;;;;5092032;28;20299;-76
2022/09/20 06:26:23;;;;;;;;;;;;;;;;;;5092428;28;19970;-75
2022/09/20 06:29:10;;;;;;;;;;;;;;;;;;5075945;28;19927;-74
2022/09/20 06:31:36;;;;;;;;;;;;;;;;;;5089028;28;19927;-76
2022/09/20 06:34:03;;;;;;;;;;;;;;;;;;5088480;28;19964;-75
2022/09/20 06:42:05;;;;;;;;;;;;;;;;;;5099456;28;19926;-77
2022/09/20 06:44:30;;;;;;;;;;;;;;;;;;5088688;28;19956;-75
2022/09/20 06:46:55;;;;;;;;;;;;;;;;;;5086644;28;19955;-76
2022/09/20 06:49:21;;;;;;;;;;;;;;;;;;5092669;28;20731;-75
2022/09/20 06:51:48;;;;;;;;;;;;;;;;;;5076608;28;19920;-74
2022/09/20 06:54:16;;;;;;;;;;;;;;;;;;5094156;28;19970;-78
2022/09/20 06:56:41;;;;;;;;;;;;;;;;;;5094624;28;19922;-76
2022/09/20 06:59:09;;;;;;;;;;;;;;;;;;5073800;28;19920;-73
2022/09/20 07:01:34;;;;;;;;;;;;;;;;;;5090805;28;19920;-73
2022/09/20 07:04:00;;;;;;;;;;;;;;;;;;5088145;28;19930;-74
2022/09/20 07:06:25;;;;;;;;;;;;;;;;;;5056975;28;19970;-75
2022/09/20 07:08:52;;;;;;;;;;;;;;;;;;5091499;28;20329;-74
2022/09/20 07:11:18;;;;;;;;;;;;;;;;;;5085829;28;19920;-75
2022/09/20 07:13:43;;;;;;;;;;;;;;;;;;5072590;28;19928;-76
2022/09/20 07:16:09;;;;;;;;;;;;;;;;;;5056416;28;19962;-76
2022/09/20 07:18:34;;;;;;;;;;;;;;;;;;5067164;28;19927;-76
2022/09/20 07:21:00;;;;;;;;;;;;;;;;;;5091899;28;20084;-75
2022/09/20 07:23:25;;;;;;;;;;;;;;;;;;5090419;28;20006;-77
2022/09/20 07:25:51;;;;;;;;;;;;;;;;;;5090789;28;20337;-76
2022/09/20 07:28:19;;;;;;;;;;;;;;;;;;5089740;28;20265;-76
2022/09/20 07:30:48;;;;;;;;;;;;;;;;;;5076522;28;19920;-75
2022/09/20 07:33:19;;;;;;;;;;;;;;;;;;5088104;28;19920;-77
2022/09/20 07:35:45;;;;;;;;;;;;;;;;;;5059186;28;19916;-76
2022/09/20 07:38:11;;;;;;;;;;;;;;;;;;5060434;28;19981;-75
2022/09/20 07:40:36;;;;;;;;;;;;;;;;;;5065726;28;19963;-76
2022/09/20 07:43:01;;;;;;;;;;;;;;;;;;5085497;28;19927;-76
2022/09/20 07:45:27;;;;;;;;;;;;;;;;;;5084086;28;19927;-76
2022/09/20 07:47:53;;;;;;;;;;;;;;;;;;5085665;28;19967;-74
2022/09/20 07:50:18;;;;;;;;;;;;;;;;;;5078362;28;20256;-76
2022/09/20 07:52:44;;;;;;;;;;;;;;;;;;5069791;28;19972;-77
2022/09/20 07:55:09;;;;;;;;;;;;;;;;;;5079423;28;20357;-77
2022/09/20 07:57:36;;;;;;;;;;;;;;;;;;5086158;28;19927;-75
2022/09/20 08:00:03;;;;;;;;;;;;;;;;;;5064134;28;19921;-75
2022/09/20 08:02:28;;;;;;;;;;;;;;;;;;5086080;28;19923;-78
2022/09/20 08:04:53;;;;;;;;;;;;;;;;;;5083675;28;19916;-76
2022/09/20 08:07:20;;;;;;;;;;;;;;;;;;5081884;28;19943;-75
2022/09/20 08:09:46;;;;;;;;;;;;;;;;;;5071432;28;20304;-75
2022/09/20 08:12:13;;;;;;;;;;;;;;;;;;5082081;28;20046;-76
2022/09/20 08:14:39;;;;;;;;;;;;;;;;;;5089789;28;19924;-76
2022/09/20 08:17:05;;;;;;;;;;;;;;;;;;5071788;28;19920;-76
2022/09/20 08:19:30;;;;;;;;;;;;;;;;;;5073281;28;20188;-76
2022/09/20 08:21:55;;;;;;;;;;;;;;;;;;5089062;28;19938;-75
2022/09/20 08:24:21;;;;;;;;;;;;;;;;;;5089927;28;20261;-77
2022/09/20 08:26:47;;;;;;;;;;;;;;;;;;5090444;28;20027;-78
2022/09/20 08:29:14;;;;;;;;;;;;;;;;;;5093343;28;19958;-79
2022/09/20 08:31:41;;;;;;;;;;;;;;;;;;5082021;28;19998;-78
2022/09/20 08:34:08;;;;;;;;;;;;;;;;;;5097284;28;19947;-78
2022/09/20 08:36:34;;;;;;;;;;;;;;;;;;5079791;28;19959;-76
2022/09/20 08:38:59;;;;;;;;;;;;;;;;;;5097311;28;19962;-75
2022/09/20 08:41:35;;;;;;;;;;;;;;;;;;5097524;28;20319;-76
2022/09/20 08:44:05;;;;;;;;;;;;;;;;;;5082835;28;19920;-75
2022/09/20 08:46:37;;;;;;;;;;;;;;;;;;5063152;28;20340;-73
2022/09/20 08:49:03;;;;;;;;;;;;;;;;;;5096671;28;19951;-76
2022/09/20 08:51:30;;;;;;;;;;;;;;;;;;5076696;28;20509;-75
2022/09/20 08:53:56;;;;;;;;;;;;;;;;;;5079005;28;20010;-76
2022/09/20 08:56:22;;;;;;;;;;;;;;;;;;5091182;28;19917;-77
2022/09/20 08:58:49;;;;;;;;;;;;;;;;;;5076025;28;19916;-77
2022/09/20 09:01:20;;;;;;;;;;;;;;;;;;5074859;28;19955;-77
2022/09/20 09:03:46;;;;;;;;;;;;;;;;;;5077317;28;19916;-76
2022/09/20 09:06:13;;;;;;;;;;;;;;;;;;5094074;28;20523;-77
2022/09/20 09:08:38;;;;;;;;;;;;;;;;;;5072922;28;20292;-77
2022/09/20 09:11:08;;;;;;;;;;;;;;;;;;5072308;28;19969;-77
2022/09/20 09:13:40;;;;;;;;;;;;;;;;;;5073161;28;19928;-78
2022/09/20 09:16:08;;;;;;;;;;;;;;;;;;5091477;28;19916;-74
2022/09/20 09:18:40;;;;;;;;;;;;;;;;;;5073774;28;19959;-75
2022/09/20 09:21:06;;;;;;;;;;;;;;;;;;5058208;28;19944;-75
2022/09/20 09:23:37;;;;;;;;;;;;;;;;;;5093307;28;20370;-77
2022/09/20 09:26:03;;;;;;;;;;;;;;;;;;5075911;28;20261;-75
2022/09/20 09:28:30;;;;;;;;;;;;;;;;;;5094829;28;19916;-74
2022/09/20 09:31:11;;;;;;;;;;;;;;;;;;5077131;28;19916;-75
2022/09/20 09:33:37;;;;;;;;;;;;;;;;;;5091049;28;19954;-77
2022/09/20 09:36:06;;;;;;;;;;;;;;;;;;5094070;28;20009;-76
2022/09/20 09:38:33;;;;;;;;;;;;;;;;;;5096801;28;20049;-76
2022/09/20 09:40:59;;;;;;;;;;;;;;;;;;5096311;28;19951;-78
2022/09/20 09:43:29;;;;;;;;;;;;;;;;;;5093253;28;20415;-79
2022/09/20 09:45:55;;;;;;;;;;;;;;;;;;5089295;28;19920;-77
2022/09/20 09:48:29;;;;;;;;;;;;;;;;;;5072699;28;19924;-78
2022/09/20 09:51:08;;;;;;;;;;;;;;;;;;5084149;28;20006;-78
2022/09/20 09:53:34;;;;;;;;;;;;;;;;;;5068503;28;19920;-77
2022/09/20 09:56:12;;;;;;;;;;;;;;;;;;5068522;28;19924;-76
2022/09/20 09:58:57;;;;;;;;;;;;;;;;;;5068842;28;19916;-74
2022/09/20 10:01:41;;;;;;;;;;;;;;;;;;5070075;28;20334;-77
2022/09/20 10:04:16;;;;;;;;;;;;;;;;;;5067110;28;20203;-77
2022/09/20 10:06:44;;;;;;;;;;;;;;;;;;5051591;28;19927;-78
2022/09/20 10:09:29;;;;;;;;;;;;;;;;;;5071011;28;19947;-76
2022/09/20 10:11:57;;;;;;;;;;;;;;;;;;5068688;28;19920;-77
2022/09/20 10:14:22;;;;;;;;;;;;;;;;;;5071256;28;19916;-78
2022/09/20 10:16:54;;;;;;;;;;;;;;;;;;5070645;28;19919;-76
2022/09/20 10:19:23;;;;;;;;;;;;;;;;;;5071662;28;19916;-76
2022/09/20 10:21:55;;;;;;;;;;;;;;;;;;5072511;28;19912;-78
2022/09/20 10:24:36;;;;;;;;;;;;;;;;;;5071254;28;20015;-77
2022/09/20 10:27:04;;;;;;;;;;;;;;;;;;5072313;28;19923;-76
2022/09/20 10:29:36;;;;;;;;;;;;;;;;;;5073056;28;20560;-78
2022/09/20 10:32:05;;;;;;;;;;;;;;;;;;5067456;28;19921;-75
2022/09/20 10:34:42;;;;;;;;;;;;;;;;;;5072276;28;19916;-78
2022/09/20 10:37:21;;;;;;;;;;;;;;;;;;5084317;28;19955;-75
2022/09/20 10:39:47;;;;;;;;;;;;;;;;;;5076793;28;19920;-76
2022/09/20 10:45:11;;;;;;;;;;;;;;;;;;5077102;28;19970;-76
2022/09/20 10:47:57;;;;;;;;;;;;;;;;;;5070753;28;20478;-75
2022/09/20 10:50:32;;;;;;;;;;;;;;;;;;5071746;28;19952;-75
2022/09/20 10:53:04;;;;;;;;;;;;;;;;;;5089425;28;20097;-74
2022/09/20 10:55:30;;;;;;;;;;;;;;;;;;5089426;28;19916;-75
2022/09/20 10:58:04;;;;;;;;;;;;;;;;;;5088672;28;19922;-77
2022/09/20 11:00:32;;;;;;;;;;;;;;;;;;5079224;28;19921;-76
2022/09/20 11:03:06;;;;;;;;;;;;;;;;;;5068975;28;19955;-77
2022/09/20 11:05:36;;;;;;;;;;;;;;;;;;5068603;28;20039;-76
2022/09/20 11:08:01;;;;;;;;;;;;;;;;;;5050557;28;20180;-79
2022/09/20 11:10:37;;;;;;;;;;;;;;;;;;5069537;28;19923;-78
2022/09/20 11:13:22;;;;;;;;;;;;;;;;;;5070699;28;19999;-78
2022/09/20 11:15:51;;;;;;;;;;;;;;;;;;5071245;28;20352;-77
2022/09/20 11:18:31;;;;;;;;;;;;;;;;;;5071642;28;19916;-78
2022/09/20 11:21:18;;;;;;;;;;;;;;;;;;5053675;28;20255;-77
2022/09/20 11:23:46;;;;;;;;;;;;;;;;;;5052393;28;19916;-78
2022/09/20 11:26:26;;;;;;;;;;;;;;;;;;5068553;28;19920;-78
2022/09/20 11:28:53;;;;;;;;;;;;;;;;;;5085910;28;20065;-76
2022/09/20 11:31:22;;;;;;;;;;;;;;;;;;5079091;28;20357;-78
2022/09/20 11:33:51;;;;;;;;;;;;;;;;;;5089694;28;19974;-78
2022/09/20 11:36:24;;;;;;;;;;;;;;;;;;5069914;28;19924;-77
2022/09/20 11:39:16;;;;;;;;;;;;;;;;;;5047907;28;19920;-78
2022/09/20 11:41:41;;;;;;;;;;;;;;;;;;5066452;28;19916;-77
2022/09/20 11:44:08;;;;;;;;;;;;;;;;;;5068851;28;19923;-77
2022/09/20 11:46:37;;;;;;;;;;;;;;;;;;5069027;28;19970;-77
2022/09/20 11:49:22;;;;;;;;;;;;;;;;;;5067582;28;19917;-77
2022/09/20 11:51:48;;;;;;;;;;;;;;;;;;5066381;28;20064;-76
2022/09/20 11:54:19;;;;;;;;;;;;;;;;;;5065873;28;20072;-76
2022/09/20 11:56:50;;;;;;;;;;;;;;;;;;5066861;28;20562;-77
2022/09/20 11:59:34;;;;;;;;;;;;;;;;;;5066875;28;20004;-76
2022/09/20 12:02:00;;;;;;;;;;;;;;;;;;5068173;28;19917;-76
2022/09/20 12:04:27;;;;;;;;;;;;;;;;;;5072497;28;20357;-76
2022/09/20 12:06:59;;;;;;;;;;;;;;;;;;5074012;28;19923;-76
2022/09/20 12:09:26;;;;;;;;;;;;;;;;;;5076858;28;19917;-76
2022/09/20 12:11:51;;;;;;;;;;;;;;;;;;5075970;28;19921;-74
2022/09/20 12:14:17;;;;;;;;;;;;;;;;;;5095522;28;19920;-75
2022/09/20 12:16:43;;;;;;;;;;;;;;;;;;5096771;28;19927;-76
2022/09/20 12:19:10;;;;;;;;;;;;;;;;;;5095077;28;19916;-76
2022/09/20 12:21:54;;;;;;;;;;;;;;;;;;5077671;28;20344;-76
2022/09/20 12:24:19;;;;;;;;;;;;;;;;;;5096531;28;19916;-76
2022/09/20 12:26:45;;;;;;;;;;;;;;;;;;5078240;28;19923;-77
2022/09/20 12:29:22;;;;;;;;;;;;;;;;;;5096897;28;19922;-76
2022/09/20 12:31:48;;;;;;;;;;;;;;;;;;5096532;28;19991;-77
2022/09/20 12:34:14;;;;;;;;;;;;;;;;;;5095252;28;20047;-77
2022/09/20 12:36:42;;;;;;;;;;;;;;;;;;5076129;28;19912;-77
2022/09/20 12:39:10;;;;;;;;;;;;;;;;;;5093960;28;19920;-77
2022/09/20 12:41:54;;;;;;;;;;;;;;;;;;5094586;28;19912;-76
2022/09/20 12:44:38;;;;;;;;;;;;;;;;;;5077508;28;19916;-78
2022/09/20 12:47:10;;;;;;;;;;;;;;;;;;5095890;28;19920;-79
2022/09/20 12:55:26;;;;;;;;;;;;;;;;;;5082085;28;19923;-77
2022/09/20 12:58:03;;;;;;;;;;;;;;;;;;5097636;28;20325;-77
2022/09/20 13:00:39;;;;;;;;;;;;;;;;;;5097244;28;19958;-77
2022/09/20 13:03:22;;;;;;;;;;;;;;;;;;5078759;28;19916;-77
2022/09/20 13:05:51;;;;;;;;;;;;;;;;;;5097349;28;20933;-77
2022/09/20 13:08:20;;;;;;;;;;;;;;;;;;5079340;28;20357;-78
2022/09/20 13:10:48;;;;;;;;;;;;;;;;;;5097471;28;20056;-77
2022/09/20 13:13:16;;;;;;;;;;;;;;;;;;5079176;28;19920;-75
2022/09/20 13:15:47;;;;;;;;;;;;;;;;;;5078623;28;19916;-76
2022/09/20 13:18:14;;;;;;;;;;;;;;;;;;5096676;28;19923;-77
2022/09/20 13:20:39;;;;;;;;;;;;;;;;;;5062212;28;19985;-77
2022/09/20 13:23:05;;;;;;;;;;;;;;;;;;5062230;28;19920;-77
2022/09/20 13:25:30;;;;;;;;;;;;;;;;;;5096617;28;19927;-76
2022/09/20 13:27:59;;;;;;;;;;;;;;;;;;5062302;28;20296;-76
2022/09/20 13:30:25;;;;;;;;;;;;;;;;;;5078542;28;19966;-77
2022/09/20 13:32:51;;;;;;;;;;;;;;;;;;5095477;28;19956;-78
2022/09/20 13:35:17;;;;;;;;;;;;;;;;;;5096524;28;19959;-78
2022/09/20 13:37:54;;;;;;;;;;;;;;;;;;5096579;28;19916;-77
2022/09/20 13:40:21;;;;;;;;;;;;;;;;;;5096560;28;20299;-79
2022/09/20 13:42:46;;;;;;;;;;;;;;;;;;5078473;28;19916;-78
2022/09/20 13:45:12;;;;;;;;;;;;;;;;;;5078597;28;19977;-80
2022/09/20 13:47:40;;;;;;;;;;;;;;;;;;5096144;28;19963;-76
2022/09/20 13:50:24;;;;;;;;;;;;;;;;;;5078159;28;19912;-78
2022/09/20 13:52:50;;;;;;;;;;;;;;;;;;5096210;28;19916;-77
2022/09/20 13:55:25;;;;;;;;;;;;;;;;;;5096323;28;19912;-78
2022/09/20 13:57:51;;;;;;;;;;;;;;;;;;5078379;28;19916;-78
2022/09/20 14:00:17;;;;;;;;;;;;;;;;;;5078290;28;20617;-78
2022/09/20 14:02:42;;;;;;;;;;;;;;;;;;5096222;28;19952;-78
2022/09/20 14:05:13;;;;;;;;;;;;;;;;;;5078175;28;20309;-79
2022/09/20 14:07:39;;;;;;;;;;;;;;;;;;5078196;28;19966;-79
2022/09/20 14:10:05;;;;;;;;;;;;;;;;;;5077851;28;19955;-78
2022/09/20 14:12:30;;;;;;;;;;;;;;;;;;5077844;28;19923;-78
2022/09/20 14:14:55;;;;;;;;;;;;;;;;;;5077918;28;19916;-78
2022/09/20 14:17:23;;;;;;;;;;;;;;;;;;5077847;28;19922;-78
2022/09/20 14:19:48;;;;;;;;;;;;;;;;;;5061520;28;19916;-78
2022/09/20 14:22:32;;;;;;;;;;;;;;;;;;5077777;28;19923;-78
2022/09/20 14:24:58;;;;;;;;;;;;;;;;;;5077811;28;20444;-79
2022/09/20 14:27:23;;;;;;;;;;;;;;;;;;5076762;28;19917;-79
2022/09/20 14:29:50;;;;;;;;;;;;;;;;;;5095593;28;19923;-77
2022/09/20 14:32:15;;;;;;;;;;;;;;;;;;5095938;28;20360;-79
2022/09/20 14:34:41;;;;;;;;;;;;;;;;;;5095678;28;19948;-78
2022/09/20 14:37:13;;;;;;;;;;;;;;;;;;5077593;28;19916;-78
2022/09/20 14:39:49;;;;;;;;;;;;;;;;;;5077693;28;19923;-78
2022/09/20 14:42:34;;;;;;;;;;;;;;;;;;5077741;28;19916;-78
2022/09/20 14:45:00;;;;;;;;;;;;;;;;;;5094356;28;20321;-78
2022/09/20 14:47:26;;;;;;;;;;;;;;;;;;5077230;28;19923;-78
2022/09/20 14:49:51;;;;;;;;;;;;;;;;;;5077515;28;19971;-78
2022/09/20 14:52:36;;;;;;;;;;;;;;;;;;5077486;28;20353;-78
2022/09/20 14:55:27;;;;;;;;;;;;;;;;;;5096214;28;19954;-78
2022/09/20 14:57:52;;;;;;;;;;;;;;;;;;5082935;28;19927;-78
2022/09/20 15:00:19;;;;;;;;;;;;;;;;;;5083693;28;19916;-77
2022/09/20 15:02:44;;;;;;;;;;;;;;;;;;5083015;28;20003;-77
2022/09/20 15:05:22;;;;;;;;;;;;;;;;;;5100152;28;20045;-78
2022/09/20 15:07:48;;;;;;;;;;;;;;;;;;5098738;28;19924;-78
2022/09/20 15:10:14;;;;;;;;;;;;;;;;;;5095016;28;19921;-78
2022/09/20 15:12:39;;;;;;;;;;;;;;;;;;5060275;28;19978;-79
2022/09/20 15:15:04;;;;;;;;;;;;;;;;;;5076521;28;20029;-78
2022/09/20 15:17:30;;;;;;;;;;;;;;;;;;5094662;28;19939;-78
2022/09/20 15:19:56;;;;;;;;;;;;;;;;;;5094812;28;19928;-78
2022/09/20 15:22:21;;;;;;;;;;;;;;;;;;5060157;28;19916;-78
2022/09/20 15:24:46;;;;;;;;;;;;;;;;;;5076574;28;19916;-78
2022/09/20 15:27:12;;;;;;;;;;;;;;;;;;5059624;28;19922;-78
2022/09/20 15:29:37;;;;;;;;;;;;;;;;;;5076260;28;19965;-79
2022/09/20 15:32:04;;;;;;;;;;;;;;;;;;5076556;28;20002;-78
2022/09/20 15:34:30;;;;;;;;;;;;;;;;;;5094472;28;19916;-78
2022/09/20 15:36:55;;;;;;;;;;;;;;;;;;5076299;28;20054;-77
2022/09/20 15:39:23;;;;;;;;;;;;;;;;;;5094399;28;19923;-78
2022/09/20 15:41:51;;;;;;;;;;;;;;;;;;5094338;28;19923;-77
2022/09/20 15:44:17;;;;;;;;;;;;;;;;;;5093409;28;19923;-79
2022/09/20 15:46:42;;;;;;;;;;;;;;;;;;5094365;28;19917;-78
2022/09/20 15:49:09;;;;;;;;;;;;;;;;;;5094419;28;19926;-78
2022/09/20 15:51:35;;;;;;;;;;;;;;;;;;5076485;28;20248;-78
2022/09/20 15:54:01;;;;;;;;;;;;;;;;;;5076117;28;19916;-78
2022/09/20 15:56:27;;;;;;;;;;;;;;;;;;5093859;28;20011;-78
2022/09/20 15:58:59;;;;;;;;;;;;;;;;;;5076475;28;19912;-78
2022/09/20 16:01:25;;;;;;;;;;;;;;;;;;5093031;28;19916;-78
2022/09/20 16:03:52;;;;;;;;;;;;;;;;;;5076195;28;20014;-77
2022/09/20 16:06:17;;;;;;;;;;;;;;;;;;5076710;28;19916;-78
2022/09/20 16:08:43;;;;;;;;;;;;;;;;;;5076112;28;19958;-78
2022/09/20 16:11:09;;;;;;;;;;;;;;;;;;5093737;28;20349;-77
2022/09/20 16:13:37;;;;;;;;;;;;;;;;;;5076091;28;19923;-78
2022/09/20 16:16:03;;;;;;;;;;;;;;;;;;5094008;28;19912;-78
2022/09/20 16:21:13;;;;;;;;;;;;;;;;;;5078795;28;20016;-77
2022/09/20 16:23:38;;;;;;;;;;;;;;;;;;5094011;28;19912;-78
2022/09/20 16:26:04;;;;;;;;;;;;;;;;;;5075698;28;19923;-79
2022/09/20 16:28:30;;;;;;;;;;;;;;;;;;5092927;28;19916;-78
2022/09/20 16:30:58;;;;;;;;;;;;;;;;;;5093954;28;20191;-78
2022/09/20 16:33:24;;;;;;;;;;;;;;;;;;5058985;28;19927;-77
2022/09/20 16:35:49;;;;;;;;;;;;;;;;;;5093935;28;19999;-79
2022/09/20 16:38:14;;;;;;;;;;;;;;;;;;5075988;28;19974;-78
2022/09/20 16:40:40;;;;;;;;;;;;;;;;;;5075607;28;19924;-78
2022/09/20 16:43:08;;;;;;;;;;;;;;;;;;5094140;28;20249;-78
2022/09/20 16:45:34;;;;;;;;;;;;;;;;;;5076141;28;19923;-77
2022/09/20 16:48:00;;;;;;;;;;;;;;;;;;5075828;28;19916;-78
2022/09/20 16:50:25;;;;;;;;;;;;;;;;;;5061875;28;19916;-78
2022/09/20 16:52:51;;;;;;;;;;;;;;;;;;5079424;28;19917;-78
2022/09/20 16:55:18;;;;;;;;;;;;;;;;;;5079028;28;19938;-78
2022/09/20 16:57:43;;;;;;;;;;;;;;;;;;5079146;28;19923;-78
2022/09/20 17:00:09;;;;;;;;;;;;;;;;;;5097399;28;19916;-77
2022/09/20 17:02:35;;;;;;;;;;;;;;;;;;5079257;28;20269;-78
2022/09/20 17:05:01;;;;;;;;;;;;;;;;;;5079347;28;20006;-78
2022/09/20 17:07:26;;;;;;;;;;;;;;;;;;5097216;28;19916;-78
2022/09/20 17:09:59;;;;;;;;;;;;;;;;;;5097456;28;19916;-78
2022/09/20 17:12:27;;;;;;;;;;;;;;;;;;5096883;28;19969;-78
2022/09/20 17:14:53;;;;;;;;;;;;;;;;;;5079715;28;19916;-79
2022/09/20 17:17:21;;;;;;;;;;;;;;;;;;5097391;28;19916;-78
2022/09/20 17:19:47;;;;;;;;;;;;;;;;;;5079043;28;20030;-78
2022/09/20 17:22:12;;;;;;;;;;;;;;;;;;5078896;28;20369;-79
2022/09/20 17:24:37;;;;;;;;;;;;;;;;;;5078651;28;19916;-78
2022/09/20 17:27:04;;;;;;;;;;;;;;;;;;5097079;28;19916;-78
2022/09/20 17:29:29;;;;;;;;;;;;;;;;;;5078903;28;19916;-78